createdAt,value
2023-02-26T00:01:43.467Z,12.24
2023-02-26T00:04:12.386Z,11.84
2023-02-26T00:06:53.348Z,11.96
2023-02-26T00:09:24.558Z,12.01
2023-02-26T00:11:53.439Z,11.88
2023-02-26T00:14:21.992Z,11.21
2023-02-26T00:16:57.146Z,11.31
2023-02-26T00:19:25.681Z,11.40
2023-02-26T00:21:54.475Z,11.32
2023-02-26T00:24:24.249Z,11.65
2023-02-26T00:26:52.551Z,12.03
2023-02-26T00:29:21.369Z,12.06
2023-02-26T00:31:50.363Z,11.77
2023-02-26T00:34:19.261Z,11.93
2023-02-26T00:36:53.514Z,11.78
2023-02-26T00:39:39.104Z,11.70
2023-02-26T00:42:08.351Z,11.13
2023-02-26T00:44:37.453Z,11.56
2023-02-26T00:47:11.384Z,11.62
2023-02-26T00:49:51.107Z,11.96
2023-02-26T00:52:26.998Z,11.64
2023-02-26T00:54:56.639Z,11.44
2023-02-26T00:57:24.802Z,11.57
2023-02-26T00:59:53.068Z,11.74
2023-02-26T01:02:21.472Z,11.30
2023-02-26T01:04:50.475Z,11.13
2023-02-26T01:07:23.926Z,11.00
2023-02-26T01:09:52.804Z,11.50
2023-02-26T01:12:23.129Z,11.99
2023-02-26T01:14:52.534Z,12.10
2023-02-26T01:17:25.024Z,12.17
2023-02-26T01:19:57.317Z,11.79
2023-02-26T01:22:34.808Z,11.72
2023-02-26T01:25:05.482Z,11.72
2023-02-26T01:27:36.015Z,11.45
2023-02-26T01:30:05.247Z,11.90
2023-02-26T01:32:45.582Z,11.96
2023-02-26T01:35:24.482Z,12.21
2023-02-26T01:37:58.750Z,11.94
2023-02-26T01:41:04.066Z,12.35
2023-02-26T01:43:40.932Z,12.47
2023-02-26T01:46:18.001Z,12.30
2023-02-26T01:48:51.488Z,12.19
2023-02-26T01:51:20.417Z,12.06
2023-02-26T01:53:48.715Z,11.83
2023-02-26T01:56:20.392Z,12.10
2023-02-26T01:58:52.060Z,11.94
2023-02-26T02:01:20.378Z,12.33
2023-02-26T02:03:48.878Z,11.75
2023-02-26T02:06:21.310Z,11.97
2023-02-26T02:08:49.586Z,12.30
2023-02-26T02:11:18.099Z,12.39
2023-02-26T02:13:59.505Z,12.14
2023-02-26T02:16:37.623Z,11.77
2023-02-26T02:19:25.253Z,12.02
2023-02-26T02:22:28.438Z,12.08
2023-02-26T02:25:14.457Z,12.19
2023-02-26T02:27:54.510Z,11.97
2023-02-26T02:30:43.862Z,11.97
2023-02-26T02:33:16.398Z,12.05
2023-02-26T02:35:48.473Z,12.38
2023-02-26T02:38:21.790Z,11.95
2023-02-26T02:40:54.176Z,11.79
2023-02-26T02:43:27.997Z,12.29
2023-02-26T02:46:03.316Z,12.40
2023-02-26T02:48:37.452Z,12.09
2023-02-26T02:51:10.188Z,11.80
2023-02-26T02:53:44.607Z,11.60
2023-02-26T02:56:18.517Z,11.79
2023-02-26T02:58:50.958Z,11.57
2023-02-26T03:01:23.025Z,11.62
2023-02-26T03:03:58.407Z,11.52
2023-02-26T03:06:26.837Z,11.88
2023-02-26T03:08:55.600Z,11.80
2023-02-26T03:11:23.911Z,12.19
2023-02-26T03:13:54.023Z,11.63
2023-02-26T03:16:34.840Z,11.57
2023-02-26T03:19:14.697Z,10.72
2023-02-26T03:21:51.107Z,11.42
2023-02-26T03:24:30.935Z,11.40
2023-02-26T03:27:03.527Z,10.54
2023-02-26T03:29:41.985Z,10.63
2023-02-26T03:32:16.331Z,10.97
2023-02-26T03:34:51.588Z,10.83
2023-02-26T03:37:26.284Z,11.12
2023-02-26T03:39:58.154Z,11.34
2023-02-26T03:42:34.351Z,11.60
2023-02-26T03:45:07.144Z,11.27
2023-02-26T03:47:37.200Z,11.60
2023-02-26T03:50:12.315Z,11.45
2023-02-26T03:52:44.482Z,11.55
2023-02-26T03:55:17.972Z,11.69
2023-02-26T03:57:46.841Z,11.85
2023-02-26T04:00:16.542Z,11.80
2023-02-26T04:02:50.071Z,11.13
2023-02-26T04:05:22.732Z,11.05
2023-02-26T04:07:51.521Z,11.08
2023-02-26T04:10:22.459Z,11.70
2023-02-26T04:12:50.791Z,11.57
2023-02-26T04:15:19.237Z,11.60
2023-02-26T04:17:47.500Z,11.55
2023-02-26T04:20:15.971Z,11.76
2023-02-26T04:22:45.748Z,11.76
2023-02-26T04:25:14.010Z,11.90
2023-02-26T04:27:42.396Z,11.75
2023-02-26T04:30:12.014Z,11.94
2023-02-26T04:32:40.215Z,12.26
2023-02-26T04:35:08.945Z,12.19
2023-02-26T04:37:37.237Z,12.35
2023-02-26T04:40:08.493Z,12.34
2023-02-26T04:42:36.776Z,11.99
2023-02-26T04:45:05.913Z,11.98
2023-02-26T04:47:34.152Z,12.05
2023-02-26T04:50:02.968Z,12.28
2023-02-26T04:52:31.296Z,12.16
2023-02-26T04:54:59.538Z,12.11
2023-02-26T04:57:29.289Z,11.84
2023-02-26T04:59:57.596Z,11.77
2023-02-26T05:02:26.541Z,12.09
2023-02-26T05:04:54.788Z,12.32
2023-02-26T05:07:23.189Z,12.39
2023-02-26T05:09:51.670Z,12.36
2023-02-26T05:12:20.085Z,12.38
2023-02-26T05:14:49.738Z,12.51
2023-02-26T05:17:17.984Z,12.16
2023-02-26T05:19:46.194Z,12.21
2023-02-26T05:22:14.391Z,12.26
2023-02-26T05:24:42.812Z,12.34
2023-02-26T05:27:11.099Z,12.48
2023-02-26T05:29:41.206Z,12.52
2023-02-26T05:32:10.899Z,12.35
2023-02-26T05:34:39.187Z,12.15
2023-02-26T05:37:07.423Z,11.58
2023-02-26T05:39:35.668Z,12.34
2023-02-26T05:42:03.920Z,12.10
2023-02-26T05:44:32.125Z,11.95
2023-02-26T05:47:00.427Z,11.77
2023-02-26T05:49:30.279Z,11.84
2023-02-26T05:51:58.700Z,12.00
2023-02-26T05:54:27.088Z,11.78
2023-02-26T05:56:56.009Z,11.88
2023-02-26T05:59:24.651Z,11.96
2023-02-26T06:01:53.113Z,11.79
2023-02-26T06:04:21.477Z,11.95
2023-02-26T06:06:51.133Z,11.99
2023-02-26T06:09:19.580Z,11.96
2023-02-26T06:11:47.821Z,12.02
2023-02-26T06:14:16.111Z,12.23
2023-02-26T06:16:44.451Z,12.40
2023-02-26T06:19:12.761Z,12.27
2023-02-26T06:21:41.168Z,12.48
2023-02-26T06:24:10.947Z,12.97
2023-02-26T06:26:39.237Z,12.83
2023-02-26T06:29:08.416Z,13.05
2023-02-26T06:31:36.705Z,12.98
2023-02-26T06:34:05.159Z,13.29
2023-02-26T06:36:33.555Z,13.08
2023-02-26T06:39:01.832Z,13.82
2023-02-26T06:41:31.536Z,13.98
2023-02-26T06:43:59.958Z,13.64
2023-02-26T06:46:28.214Z,13.94
2023-02-26T06:48:56.496Z,13.77
2023-02-26T06:51:24.935Z,14.29
2023-02-26T06:53:53.212Z,14.53
2023-02-26T06:56:24.175Z,13.86
2023-02-26T06:58:54.110Z,14.31
2023-02-26T07:01:22.529Z,14.35
2023-02-26T07:03:51.000Z,14.84
2023-02-26T07:06:27.351Z,15.14
2023-02-26T07:08:56.348Z,15.30
2023-02-26T07:11:24.697Z,15.46
2023-02-26T07:13:55.220Z,15.55
2023-02-26T07:16:23.886Z,15.36
2023-02-26T07:18:52.385Z,15.56
2023-02-26T07:21:20.690Z,15.62
2023-02-26T07:23:48.953Z,15.39
2023-02-26T07:26:17.848Z,15.41
2023-02-26T07:28:46.208Z,16.06
2023-02-26T07:31:16.844Z,16.18
2023-02-26T07:33:45.266Z,16.31
2023-02-26T07:36:13.562Z,16.09
2023-02-26T07:38:41.820Z,16.19
2023-02-26T07:41:10.547Z,15.63
2023-02-26T07:43:38.895Z,15.82
2023-02-26T07:46:07.410Z,16.38
2023-02-26T07:48:37.312Z,16.17
2023-02-26T07:51:07.478Z,16.07
2023-02-26T07:53:36.390Z,16.35
2023-02-26T07:56:05.017Z,16.60
2023-02-26T07:58:33.267Z,16.77
2023-02-26T08:01:01.517Z,17.44
2023-02-26T08:03:29.778Z,17.11
2023-02-26T08:06:00.542Z,17.51
2023-02-26T08:08:29.067Z,17.26
2023-02-26T08:10:57.381Z,17.14
2023-02-26T08:13:25.644Z,17.73
2023-02-26T08:15:55.073Z,17.22
2023-02-26T08:18:23.323Z,16.76
2023-02-26T08:20:52.785Z,16.57
2023-02-26T08:23:22.506Z,16.69
2023-02-26T08:25:51.151Z,17.08
2023-02-26T08:28:19.434Z,16.81
2023-02-26T08:30:47.708Z,16.93
2023-02-26T08:33:16.019Z,17.50
2023-02-26T08:35:44.246Z,17.75
2023-02-26T08:38:12.789Z,17.51
2023-02-26T08:40:42.571Z,17.52
2023-02-26T08:43:11.884Z,18.09
2023-02-26T08:45:40.120Z,17.88
2023-02-26T08:48:10.680Z,17.66
2023-02-26T08:50:40.354Z,17.80
2023-02-26T08:53:08.677Z,18.31
2023-02-26T08:55:36.985Z,18.05
2023-02-26T08:58:07.877Z,18.27
2023-02-26T09:00:36.301Z,18.16
2023-02-26T09:03:04.633Z,18.17
2023-02-26T09:05:32.890Z,17.87
2023-02-26T09:08:01.314Z,17.38
2023-02-26T09:10:29.765Z,18.13
2023-02-26T09:12:58.073Z,18.00
2023-02-26T09:15:27.845Z,17.49
2023-02-26T09:17:56.362Z,17.95
2023-02-26T09:20:25.016Z,18.02
2023-02-26T09:22:53.243Z,18.83
2023-02-26T09:25:21.665Z,19.18
2023-02-26T09:27:49.902Z,19.36
2023-02-26T09:30:18.521Z,20.01
2023-02-26T09:32:48.228Z,19.23
2023-02-26T09:35:16.518Z,19.72
2023-02-26T09:37:44.779Z,19.02
2023-02-26T09:40:25.848Z,19.21
2023-02-26T09:43:12.230Z,18.74
2023-02-26T09:45:44.791Z,18.91
2023-02-26T09:48:17.736Z,18.82
2023-02-26T09:50:49.322Z,18.67
2023-02-26T09:53:22.483Z,17.91
2023-02-26T09:55:53.303Z,17.57
2023-02-26T09:58:27.372Z,17.21
2023-02-26T10:01:05.715Z,17.02
2023-02-26T10:03:46.211Z,17.15
2023-02-26T10:06:26.873Z,17.09
2023-02-26T10:09:22.912Z,17.02
2023-02-26T10:11:57.780Z,16.67
2023-02-26T10:14:29.824Z,16.48
2023-02-26T10:17:02.357Z,16.51
2023-02-26T10:19:35.766Z,16.01
2023-02-26T10:22:14.895Z,16.21
2023-02-26T10:24:48.823Z,16.02
2023-02-26T10:27:22.012Z,15.59
2023-02-26T10:29:57.721Z,15.67
2023-02-26T10:32:31.038Z,16.17
2023-02-26T10:35:04.368Z,16.67
2023-02-26T10:37:44.290Z,17.13
2023-02-26T10:40:17.965Z,17.70
2023-02-26T10:42:50.036Z,18.05
2023-02-26T10:45:32.058Z,17.24
2023-02-26T10:48:14.162Z,17.74
2023-02-26T10:50:49.852Z,17.34
2023-02-26T10:53:18.141Z,18.09
2023-02-26T10:55:51.488Z,17.70
2023-02-26T10:58:23.801Z,17.43
2023-02-26T11:00:54.450Z,17.57
2023-02-26T11:03:31.976Z,16.92
2023-02-26T11:06:03.908Z,16.39
2023-02-26T11:08:34.613Z,16.65
2023-02-26T11:11:05.358Z,15.97
2023-02-26T11:13:37.736Z,15.74
2023-02-26T11:16:11.946Z,15.65
2023-02-26T11:18:45.064Z,15.10
2023-02-26T11:21:21.086Z,15.29
2023-02-26T11:23:50.782Z,15.07
2023-02-26T11:26:21.085Z,15.24
2023-02-26T11:28:55.049Z,15.28
2023-02-26T11:31:26.216Z,15.39
2023-02-26T11:34:00.080Z,15.21
2023-02-26T11:36:32.157Z,15.11
2023-02-26T11:39:04.505Z,15.15
2023-02-26T11:41:39.020Z,15.22
2023-02-26T11:44:13.852Z,15.18
2023-02-26T11:46:46.476Z,15.32
2023-02-26T11:49:17.948Z,15.44
2023-02-26T11:51:49.006Z,15.28
2023-02-26T11:54:24.747Z,16.05
2023-02-26T11:56:52.972Z,15.81
2023-02-26T11:59:23.619Z,16.21
2023-02-26T12:01:52.826Z,16.27
2023-02-26T12:04:24.520Z,16.38
2023-02-26T12:06:56.864Z,16.02
2023-02-26T12:09:27.240Z,15.83
2023-02-26T12:12:18.025Z,16.12
2023-02-26T12:15:02.625Z,15.47
2023-02-26T12:17:45.272Z,15.49
2023-02-26T12:20:21.628Z,15.45
2023-02-26T12:22:59.228Z,15.58
2023-02-26T12:26:14.130Z,15.19
2023-02-26T12:28:53.396Z,15.18
2023-02-26T12:31:47.936Z,14.86
2023-02-26T12:34:34.326Z,15.43
2023-02-26T12:37:27.820Z,15.40
2023-02-26T12:40:15.629Z,15.45
2023-02-26T12:42:53.372Z,15.12
2023-02-26T12:45:34.736Z,15.15
2023-02-26T12:48:18.902Z,15.07
2023-02-26T12:51:03.042Z,15.58
2023-02-26T12:53:58.629Z,15.44
2023-02-26T12:56:52.010Z,15.33
2023-02-26T12:59:45.858Z,15.95
2023-02-26T13:02:55.054Z,15.81
2023-02-26T13:05:38.283Z,15.52
2023-02-26T13:08:17.461Z,15.33
2023-02-26T13:11:02.026Z,15.44
2023-02-26T13:13:58.199Z,15.01
2023-02-26T13:16:44.651Z,15.63
2023-02-26T13:19:25.056Z,14.95
2023-02-26T13:22:00.440Z,15.02
2023-02-26T13:24:34.995Z,15.28
2023-02-26T13:27:04.982Z,15.12
2023-02-26T13:29:41.444Z,14.80
2023-02-26T13:32:15.284Z,14.92
2023-02-26T13:34:49.665Z,14.95
2023-02-26T13:37:40.574Z,14.80
2023-02-26T13:40:36.802Z,14.82
2023-02-26T13:43:18.044Z,14.00
2023-02-26T13:45:58.768Z,14.87
2023-02-26T13:48:39.278Z,14.85
2023-02-26T13:51:15.039Z,15.20
2023-02-26T13:54:00.261Z,14.92
2023-02-26T13:56:49.471Z,14.49
2023-02-26T13:59:39.374Z,14.56
2023-02-26T14:02:37.013Z,14.21
2023-02-26T14:05:26.327Z,14.21
2023-02-26T14:08:09.777Z,14.27
2023-02-26T14:10:46.583Z,14.28
2023-02-26T14:13:19.289Z,14.44
2023-02-26T14:15:54.731Z,14.44
2023-02-26T14:18:38.263Z,14.30
2023-02-26T14:21:39.378Z,14.47
2023-02-26T14:24:17.237Z,14.47
2023-02-26T14:26:47.937Z,14.37
2023-02-26T14:29:21.390Z,14.08
2023-02-26T14:32:04.602Z,14.23
2023-02-26T14:34:40.752Z,14.25
2023-02-26T14:37:14.074Z,14.50
2023-02-26T14:39:48.311Z,14.80
2023-02-26T14:42:21.442Z,14.63
2023-02-26T14:44:54.811Z,14.44
2023-02-26T14:47:23.313Z,14.60
2023-02-26T14:49:59.659Z,14.37
2023-02-26T14:52:46.869Z,14.69
2023-02-26T14:55:39.571Z,14.30
2023-02-26T14:58:25.944Z,14.54
2023-02-26T15:01:19.404Z,14.49
2023-02-26T15:04:12.225Z,14.50
2023-02-26T15:06:58.378Z,14.30
2023-02-26T15:09:34.702Z,14.66
2023-02-26T15:12:17.502Z,14.73
2023-02-26T15:15:00.901Z,14.53
2023-02-26T15:17:45.313Z,14.67
2023-02-26T15:20:23.631Z,14.46
2023-02-26T15:23:14.166Z,14.37
2023-02-26T15:25:45.008Z,14.50
2023-02-26T15:28:26.765Z,14.46
2023-02-26T15:30:55.683Z,14.35
2023-02-26T15:33:26.570Z,14.31
2023-02-26T15:35:56.933Z,14.61
2023-02-26T15:38:27.372Z,14.49
2023-02-26T15:41:02.406Z,14.46
2023-02-26T15:43:31.091Z,14.42
2023-02-26T15:46:03.065Z,14.52
2023-02-26T15:48:33.862Z,14.41
2023-02-26T15:51:05.301Z,14.27
2023-02-26T15:53:41.167Z,14.28
2023-02-26T15:56:12.756Z,14.13
2023-02-26T15:58:45.247Z,14.09
2023-02-26T16:01:18.354Z,14.14
2023-02-26T16:03:47.560Z,14.18
2023-02-26T16:06:20.601Z,14.49
2023-02-26T16:08:50.390Z,14.69
2023-02-26T16:11:19.425Z,14.91
2023-02-26T16:13:53.405Z,14.80
2023-02-26T16:16:26.854Z,14.85
2023-02-26T16:18:57.596Z,14.67
2023-02-26T16:21:30.475Z,14.24
2023-02-26T16:24:01.972Z,14.06
2023-02-26T16:26:34.104Z,14.02
2023-02-26T16:29:06.051Z,13.81
2023-02-26T16:31:37.228Z,13.85
2023-02-26T16:34:23.632Z,13.87
2023-02-26T16:36:52.644Z,14.07
2023-02-26T16:39:24.621Z,13.85
2023-02-26T16:42:04.080Z,13.49
2023-02-26T16:45:03.239Z,13.87
2023-02-26T16:47:32.714Z,13.73
2023-02-26T16:50:04.209Z,13.47
2023-02-26T16:52:32.867Z,13.39
2023-02-26T16:55:08.100Z,13.36
2023-02-26T16:57:39.923Z,13.46
2023-02-26T17:00:17.903Z,13.36
2023-02-26T17:02:48.744Z,13.38
2023-02-26T17:05:24.870Z,13.24
2023-02-26T17:07:58.706Z,13.16
2023-02-26T17:10:34.713Z,13.16
2023-02-26T17:13:07.889Z,13.32
2023-02-26T17:15:38.828Z,13.29
2023-02-26T17:18:07.212Z,13.29
2023-02-26T17:20:36.570Z,13.25
2023-02-26T17:23:08.976Z,13.25
2023-02-26T17:25:42.041Z,13.30
2023-02-26T17:28:13.747Z,13.14
2023-02-26T17:30:42.000Z,13.29
2023-02-26T17:33:14.331Z,13.20
2023-02-26T17:35:43.224Z,13.16
2023-02-26T17:38:13.501Z,12.31
2023-02-26T17:40:45.354Z,13.30
2023-02-26T17:43:13.599Z,13.27
2023-02-26T17:45:42.461Z,13.25
2023-02-26T17:48:14.590Z,13.27
2023-02-26T17:50:47.187Z,12.86
2023-02-26T17:53:16.357Z,12.93
2023-02-26T17:55:46.853Z,13.21
2023-02-26T17:58:18.355Z,13.30
2023-02-26T18:00:49.953Z,13.34
2023-02-26T18:03:18.694Z,13.27
2023-02-26T18:05:47.497Z,13.18
2023-02-26T18:08:22.182Z,13.29
2023-02-26T18:10:52.194Z,13.31
2023-02-26T18:13:20.923Z,13.40
2023-02-26T18:15:50.037Z,13.26
2023-02-26T18:18:19.640Z,13.30
2023-02-26T18:20:48.198Z,13.35
2023-02-26T18:23:16.913Z,13.23
2023-02-26T18:25:47.005Z,13.50
2023-02-26T18:28:20.552Z,13.49
2023-02-26T18:30:49.636Z,13.32
2023-02-26T18:33:19.001Z,13.26
2023-02-26T18:35:51.370Z,13.26
2023-02-26T18:38:21.972Z,12.98
2023-02-26T18:40:50.842Z,13.27
2023-02-26T18:43:20.910Z,13.23
2023-02-26T18:45:52.507Z,13.25
2023-02-26T18:48:22.347Z,13.28
2023-02-26T18:50:51.004Z,13.03
2023-02-26T18:53:23.482Z,13.23
2023-02-26T18:55:53.578Z,13.20
2023-02-26T18:58:23.348Z,13.29
2023-02-26T19:00:51.929Z,12.89
2023-02-26T19:03:20.536Z,13.45
2023-02-26T19:05:57.960Z,13.39
2023-02-26T19:08:26.661Z,13.90
2023-02-26T19:10:55.473Z,13.90
2023-02-26T19:13:25.573Z,14.06
2023-02-26T19:15:54.004Z,14.28
2023-02-26T19:18:22.453Z,14.17
2023-02-26T19:20:50.809Z,14.06
2023-02-26T19:23:19.743Z,14.11
2023-02-26T19:25:48.156Z,13.86
2023-02-26T19:28:16.421Z,13.54
2023-02-26T19:30:46.144Z,13.92
2023-02-26T19:33:14.540Z,13.75
2023-02-26T19:35:42.961Z,13.77
2023-02-26T19:38:11.712Z,13.92
2023-02-26T19:40:40.300Z,13.81
2023-02-26T19:43:08.553Z,13.49
2023-02-26T19:45:37.015Z,13.77
2023-02-26T19:48:06.831Z,13.82
2023-02-26T19:50:35.468Z,13.71
2023-02-26T19:53:03.896Z,13.58
2023-02-26T19:55:32.380Z,13.73
2023-02-26T19:58:00.825Z,13.62
2023-02-26T20:00:29.125Z,13.66
2023-02-26T20:02:57.515Z,13.70
2023-02-26T20:05:27.153Z,13.67
2023-02-26T20:07:56.481Z,13.58
2023-02-26T20:10:26.692Z,13.66
2023-02-26T20:12:56.219Z,13.62
2023-02-26T20:15:24.573Z,13.78
2023-02-26T20:17:52.877Z,13.91
2023-02-26T20:20:21.639Z,14.08
2023-02-26T20:22:51.232Z,13.94
2023-02-26T20:25:20.496Z,13.90
2023-02-26T20:27:48.796Z,14.12
2023-02-26T20:30:17.583Z,14.01
2023-02-26T20:32:46.555Z,14.03
2023-02-26T20:35:15.280Z,13.88
2023-02-26T20:37:44.280Z,13.94
2023-02-26T20:40:14.682Z,13.88
2023-02-26T20:42:43.034Z,13.64
2023-02-26T20:45:12.993Z,13.64
2023-02-26T20:47:41.352Z,13.36
2023-02-26T20:50:10.986Z,13.43
2023-02-26T20:52:39.320Z,13.38
2023-02-26T20:55:08.466Z,13.34
2023-02-26T20:57:38.098Z,13.38
2023-02-26T21:00:11.201Z,13.17
2023-02-26T21:02:40.076Z,13.15
2023-02-26T21:05:09.842Z,13.34
2023-02-26T21:07:39.389Z,13.60
2023-02-26T21:10:08.499Z,13.83
2023-02-26T21:12:38.999Z,13.83
2023-02-26T21:15:10.456Z,13.38
2023-02-26T21:17:39.756Z,12.98
2023-02-26T21:20:10.468Z,12.90
2023-02-26T21:22:39.322Z,12.84
2023-02-26T21:25:08.946Z,12.85
2023-02-26T21:27:39.611Z,12.93
2023-02-26T21:30:10.212Z,12.39
2023-02-26T21:32:40.213Z,12.97
2023-02-26T21:35:15.948Z,12.96
2023-02-26T21:37:44.828Z,12.96
2023-02-26T21:40:14.768Z,12.03
2023-02-26T21:42:45.056Z,12.96
2023-02-26T21:45:13.808Z,13.14
2023-02-26T21:47:42.093Z,13.24
2023-02-26T21:50:11.280Z,13.33
2023-02-26T21:52:39.673Z,13.56
2023-02-26T21:55:08.425Z,13.75
2023-02-26T21:57:36.930Z,13.28
2023-02-26T22:00:10.314Z,13.19
2023-02-26T22:02:38.987Z,13.51
2023-02-26T22:05:07.520Z,13.33
2023-02-26T22:07:35.918Z,13.23
2023-02-26T22:10:04.898Z,13.08
2023-02-26T22:12:33.429Z,13.04
2023-02-26T22:15:01.743Z,12.97
2023-02-26T22:17:31.827Z,13.00
2023-02-26T22:20:00.120Z,13.14
2023-02-26T22:22:28.355Z,13.30
2023-02-26T22:24:56.639Z,12.75
2023-02-26T22:27:24.863Z,13.13
2023-02-26T22:29:53.098Z,13.16
2023-02-26T22:32:21.401Z,13.12
2023-02-26T22:34:52.409Z,13.22
2023-02-26T22:37:20.631Z,13.14
2023-02-26T22:39:48.896Z,13.18
2023-02-26T22:42:17.967Z,13.16
2023-02-26T22:44:46.186Z,13.33
2023-02-26T22:47:14.474Z,13.45
2023-02-26T22:49:42.719Z,13.36
2023-02-26T22:52:12.414Z,13.41
2023-02-26T22:54:40.816Z,13.63
2023-02-26T22:57:09.899Z,13.50
2023-02-26T22:59:38.168Z,13.42
2023-02-26T23:02:06.471Z,13.23
2023-02-26T23:04:34.802Z,13.58
2023-02-26T23:07:03.482Z,13.62
2023-02-26T23:09:33.255Z,13.65
2023-02-26T23:12:01.514Z,13.60
2023-02-26T23:14:29.829Z,13.67
2023-02-26T23:16:58.142Z,13.50
2023-02-26T23:19:26.566Z,13.74
2023-02-26T23:21:56.493Z,13.07
2023-02-26T23:24:24.831Z,13.68
2023-02-26T23:26:54.397Z,13.77
2023-02-26T23:29:22.656Z,13.69
2023-02-26T23:31:51.247Z,13.32
2023-02-26T23:34:19.633Z,13.64
2023-02-26T23:36:47.861Z,13.44
2023-02-26T23:39:16.166Z,13.57
2023-02-26T23:41:44.454Z,13.47
2023-02-26T23:44:14.127Z,13.42
2023-02-26T23:46:42.441Z,13.04
2023-02-26T23:49:10.738Z,13.63
2023-02-26T23:51:39.615Z,13.52
2023-02-26T23:54:07.938Z,13.72
2023-02-26T23:56:36.094Z,13.62
2023-02-26T23:59:04.801Z,13.64
